Decoded Metar for LFOV (LAVAL in FRANCE) (IATA:LVA) | Meteo·Mobile Aviation Weather
aviador You're here:

LFOV Decoded Metar

LAVAL in FRANCE
Report Time2019-04-26 03:30:00
UTC Time2019-04-26 03:39:51
Flight Rules vfr VFR
Wind120° at 03 kt
W.Decomp.*RWY 14: 2.8 kt HW 1 kt LCW
Visibility9999 m
Phenomena:N/A
Clouds:N/A
CeilingNone
Temp06°C (ISA -8)
Dew Point06°C (100% RH)
AAT4.0°C
QNH1009 hPa
Density Alt-427 ft
Elevation318 ft
Report Wrong Elevation
Raw Report
METAR LFOV 260330Z AUTO 12003KT CAVOK 06/06 Q1009=

Extra information for LFOV:More info

Metar Taf Metar & Taf Last 4 Metars F.Rules Stats Wind Profile Meteogram Temp Stats Airport Information Weather charts Add Link Nearby VenuesMetar ALERT Operation Metar Decoded Social comments